sensor_id;sensor_type;location;lat;lon;timestamp;P1;durP1;ratioP1;P2;durP2;ratioP2
66145;SDS011;52948;60.040;30.320;2022-09-30T00:03:40;5.05;;;2.75;;
66145;SDS011;52948;60.040;30.320;2022-09-30T00:08:46;4.07;;;2.78;;
66145;SDS011;52948;60.040;30.320;2022-09-30T00:13:49;4.43;;;3.00;;
66145;SDS011;52948;60.040;30.320;2022-09-30T00:18:53;4.45;;;2.60;;
66145;SDS011;52948;60.040;30.320;2022-09-30T00:23:56;5.97;;;2.80;;
66145;SDS011;52948;60.040;30.320;2022-09-30T00:28:58;4.50;;;2.88;;
66145;SDS011;52948;60.040;30.320;2022-09-30T00:34:02;5.07;;;2.60;;
66145;SDS011;52948;60.040;30.320;2022-09-30T00:39:13;4.55;;;2.95;;
66145;SDS011;52948;60.040;30.320;2022-09-30T00:49:59;4.68;;;2.75;;
66145;SDS011;52948;60.040;30.320;2022-09-30T00:55:05;4.50;;;2.80;;
66145;SDS011;52948;60.040;30.320;2022-09-30T01:00:10;5.35;;;2.90;;
66145;SDS011;52948;60.040;30.320;2022-09-30T01:05:12;4.57;;;2.80;;
66145;SDS011;52948;60.040;30.320;2022-09-30T01:10:15;5.28;;;3.00;;
66145;SDS011;52948;60.040;30.320;2022-09-30T01:15:18;4.10;;;2.50;;
66145;SDS011;52948;60.040;30.320;2022-09-30T01:41:43;4.03;;;2.65;;
66145;SDS011;52948;60.040;30.320;2022-09-30T01:46:55;4.03;;;2.15;;
66145;SDS011;52948;60.040;30.320;2022-09-30T01:52:03;4.83;;;2.67;;
66145;SDS011;52948;60.040;30.320;2022-09-30T01:57:21;3.38;;;2.25;;
66145;SDS011;52948;60.040;30.320;2022-09-30T02:02:25;3.67;;;2.20;;
66145;SDS011;52948;60.040;30.320;2022-09-30T02:07:30;3.28;;;2.53;;
66145;SDS011;52948;60.040;30.320;2022-09-30T02:18:15;3.22;;;2.22;;
66145;SDS011;52948;60.040;30.320;2022-09-30T02:23:46;4.50;;;2.60;;
66145;SDS011;52948;60.040;30.320;2022-09-30T02:28:51;4.50;;;2.30;;
66145;SDS011;52948;60.040;30.320;2022-09-30T02:33:57;4.70;;;2.63;;
66145;SDS011;52948;60.040;30.320;2022-09-30T02:39:07;4.70;;;2.90;;
66145;SDS011;52948;60.040;30.320;2022-09-30T02:44:15;4.65;;;2.72;;
66145;SDS011;52948;60.040;30.320;2022-09-30T02:49:21;4.43;;;2.50;;
66145;SDS011;52948;60.040;30.320;2022-09-30T02:54:52;3.95;;;2.05;;
66145;SDS011;52948;60.040;30.320;2022-09-30T03:00:13;3.13;;;2.28;;
66145;SDS011;52948;60.040;30.320;2022-09-30T03:05:15;4.47;;;2.78;;
66145;SDS011;52948;60.040;30.320;2022-09-30T03:10:18;4.80;;;2.80;;
66145;SDS011;52948;60.040;30.320;2022-09-30T03:26:54;4.55;;;2.90;;
66145;SDS011;52948;60.040;30.320;2022-09-30T03:42:35;4.72;;;2.67;;
66145;SDS011;52948;60.040;30.320;2022-09-30T03:47:47;5.32;;;2.97;;
66145;SDS011;52948;60.040;30.320;2022-09-30T03:52:52;3.92;;;2.67;;
66145;SDS011;52948;60.040;30.320;2022-09-30T03:57:54;5.72;;;3.20;;
66145;SDS011;52948;60.040;30.320;2022-09-30T04:03:23;5.82;;;2.95;;
66145;SDS011;52948;60.040;30.320;2022-09-30T04:08:27;4.13;;;2.70;;
66145;SDS011;52948;60.040;30.320;2022-09-30T04:13:29;5.38;;;3.05;;
66145;SDS011;52948;60.040;30.320;2022-09-30T04:18:36;5.25;;;3.08;;
66145;SDS011;52948;60.040;30.320;2022-09-30T04:24:25;5.53;;;3.08;;
66145;SDS011;52948;60.040;30.320;2022-09-30T04:29:27;5.78;;;2.88;;
66145;SDS011;52948;60.040;30.320;2022-09-30T04:34:29;5.53;;;2.67;;
66145;SDS011;52948;60.040;30.320;2022-09-30T04:39:32;5.20;;;2.70;;
66145;SDS011;52948;60.040;30.320;2022-09-30T04:44:34;3.95;;;2.50;;
66145;SDS011;52948;60.040;30.320;2022-09-30T04:49:36;4.65;;;3.38;;
66145;SDS011;52948;60.040;30.320;2022-09-30T04:54:38;5.28;;;2.40;;
66145;SDS011;52948;60.040;30.320;2022-09-30T04:59:41;5.35;;;2.65;;
66145;SDS011;52948;60.040;30.320;2022-09-30T05:04:44;5.40;;;2.50;;
66145;SDS011;52948;60.040;30.320;2022-09-30T05:09:47;4.10;;;2.60;;
66145;SDS011;52948;60.040;30.320;2022-09-30T05:14:50;5.43;;;2.40;;
66145;SDS011;52948;60.040;30.320;2022-09-30T05:19:53;3.78;;;2.20;;
66145;SDS011;52948;60.040;30.320;2022-09-30T05:24:55;2.78;;;2.42;;
66145;SDS011;52948;60.040;30.320;2022-09-30T05:29:57;3.10;;;2.05;;
66145;SDS011;52948;60.040;30.320;2022-09-30T05:35:00;3.25;;;2.50;;
66145;SDS011;52948;60.040;30.320;2022-09-30T05:40:04;2.63;;;1.90;;
66145;SDS011;52948;60.040;30.320;2022-09-30T05:45:08;2.83;;;2.42;;
66145;SDS011;52948;60.040;30.320;2022-09-30T05:50:10;4.75;;;2.58;;
66145;SDS011;52948;60.040;30.320;2022-09-30T05:55:12;3.92;;;2.38;;
66145;SDS011;52948;60.040;30.320;2022-09-30T06:00:15;4.45;;;2.47;;
66145;SDS011;52948;60.040;30.320;2022-09-30T06:05:17;5.13;;;3.00;;
66145;SDS011;52948;60.040;30.320;2022-09-30T06:10:20;3.53;;;2.55;;
66145;SDS011;52948;60.040;30.320;2022-09-30T06:15:22;4.47;;;2.88;;
66145;SDS011;52948;60.040;30.320;2022-09-30T06:20:24;3.35;;;2.60;;
66145;SDS011;52948;60.040;30.320;2022-09-30T06:25:27;3.20;;;2.40;;
66145;SDS011;52948;60.040;30.320;2022-09-30T06:30:30;3.95;;;2.10;;
66145;SDS011;52948;60.040;30.320;2022-09-30T06:35:32;3.13;;;2.78;;
66145;SDS011;52948;60.040;30.320;2022-09-30T06:40:38;5.00;;;2.90;;
66145;SDS011;52948;60.040;30.320;2022-09-30T06:45:40;3.47;;;2.53;;
66145;SDS011;52948;60.040;30.320;2022-09-30T06:50:42;5.07;;;2.50;;
66145;SDS011;52948;60.040;30.320;2022-09-30T06:55:46;3.55;;;2.42;;
66145;SDS011;52948;60.040;30.320;2022-09-30T07:00:58;4.05;;;2.70;;
66145;SDS011;52948;60.040;30.320;2022-09-30T07:06:05;3.42;;;2.33;;
66145;SDS011;52948;60.040;30.320;2022-09-30T07:11:08;2.53;;;2.13;;
66145;SDS011;52948;60.040;30.320;2022-09-30T07:16:18;5.78;;;2.60;;
66145;SDS011;52948;60.040;30.320;2022-09-30T07:21:22;4.28;;;3.00;;
66145;SDS011;52948;60.040;30.320;2022-09-30T07:26:24;6.50;;;3.05;;
66145;SDS011;52948;60.040;30.320;2022-09-30T07:31:27;4.07;;;2.80;;
66145;SDS011;52948;60.040;30.320;2022-09-30T07:36:30;5.80;;;2.90;;
66145;SDS011;52948;60.040;30.320;2022-09-30T07:41:34;4.97;;;3.30;;
66145;SDS011;52948;60.040;30.320;2022-09-30T07:46:38;4.35;;;3.13;;
66145;SDS011;52948;60.040;30.320;2022-09-30T07:51:41;3.33;;;2.53;;
66145;SDS011;52948;60.040;30.320;2022-09-30T07:56:47;4.65;;;2.78;;
66145;SDS011;52948;60.040;30.320;2022-09-30T08:01:49;3.55;;;3.08;;
66145;SDS011;52948;60.040;30.320;2022-09-30T08:06:55;5.18;;;2.75;;
66145;SDS011;52948;60.040;30.320;2022-09-30T08:12:01;4.05;;;2.85;;
66145;SDS011;52948;60.040;30.320;2022-09-30T08:17:29;3.70;;;3.03;;
66145;SDS011;52948;60.040;30.320;2022-09-30T08:22:35;6.05;;;3.45;;
66145;SDS011;52948;60.040;30.320;2022-09-30T08:27:37;4.20;;;3.22;;
66145;SDS011;52948;60.040;30.320;2022-09-30T08:32:40;4.80;;;2.97;;
66145;SDS011;52948;60.040;30.320;2022-09-30T08:37:42;4.13;;;2.25;;
66145;SDS011;52948;60.040;30.320;2022-09-30T08:43:07;3.22;;;2.25;;
66145;SDS011;52948;60.040;30.320;2022-09-30T08:53:27;4.50;;;2.40;;
66145;SDS011;52948;60.040;30.320;2022-09-30T08:58:40;6.07;;;2.70;;
66145;SDS011;52948;60.040;30.320;2022-09-30T09:03:44;4.22;;;2.40;;
66145;SDS011;52948;60.040;30.320;2022-09-30T09:14:06;2.57;;;2.00;;
66145;SDS011;52948;60.040;30.320;2022-09-30T09:19:21;2.85;;;1.83;;
66145;SDS011;52948;60.040;30.320;2022-09-30T09:24:50;2.15;;;1.60;;
66145;SDS011;52948;60.040;30.320;2022-09-30T09:30:02;2.17;;;1.63;;
66145;SDS011;52948;60.040;30.320;2022-09-30T09:35:18;1.83;;;1.42;;
66145;SDS011;52948;60.040;30.320;2022-09-30T09:46:32;1.90;;;1.25;;
66145;SDS011;52948;60.040;30.320;2022-09-30T09:51:41;2.33;;;1.50;;
66145;SDS011;52948;60.040;30.320;2022-09-30T09:56:48;2.38;;;1.55;;
66145;SDS011;52948;60.040;30.320;2022-09-30T10:01:53;1.67;;;1.40;;
66145;SDS011;52948;60.040;30.320;2022-09-30T10:17:11;2.72;;;1.60;;
66145;SDS011;52948;60.040;30.320;2022-09-30T10:22:23;1.95;;;1.42;;
66145;SDS011;52948;60.040;30.320;2022-09-30T10:27:29;1.92;;;1.45;;
66145;SDS011;52948;60.040;30.320;2022-09-30T10:32:33;1.85;;;1.38;;
66145;SDS011;52948;60.040;30.320;2022-09-30T10:37:36;1.98;;;1.40;;
66145;SDS011;52948;60.040;30.320;2022-09-30T10:42:39;2.72;;;1.60;;
66145;SDS011;52948;60.040;30.320;2022-09-30T10:47:42;2.35;;;1.58;;
66145;SDS011;52948;60.040;30.320;2022-09-30T10:52:47;5.20;;;1.92;;
66145;SDS011;52948;60.040;30.320;2022-09-30T10:57:54;3.13;;;1.70;;
66145;SDS011;52948;60.040;30.320;2022-09-30T11:03:04;2.70;;;1.92;;
66145;SDS011;52948;60.040;30.320;2022-09-30T11:08:32;2.72;;;1.70;;
66145;SDS011;52948;60.040;30.320;2022-09-30T11:19:08;4.43;;;2.03;;
66145;SDS011;52948;60.040;30.320;2022-09-30T11:24:19;3.38;;;1.80;;
66145;SDS011;52948;60.040;30.320;2022-09-30T11:35:06;2.92;;;2.15;;
66145;SDS011;52948;60.040;30.320;2022-09-30T11:51:00;1.83;;;1.40;;
66145;SDS011;52948;60.040;30.320;2022-09-30T11:56:25;4.85;;;1.48;;
66145;SDS011;52948;60.040;30.320;2022-09-30T12:01:51;3.25;;;1.50;;
66145;SDS011;52948;60.040;30.320;2022-09-30T12:06:57;3.92;;;1.77;;
66145;SDS011;52948;60.040;30.320;2022-09-30T12:12:07;2.15;;;1.40;;
66145;SDS011;52948;60.040;30.320;2022-09-30T12:17:17;3.08;;;1.35;;
66145;SDS011;52948;60.040;30.320;2022-09-30T12:22:24;2.97;;;1.60;;
66145;SDS011;52948;60.040;30.320;2022-09-30T12:27:41;1.90;;;1.40;;
66145;SDS011;52948;60.040;30.320;2022-09-30T12:49:43;2.63;;;1.65;;
66145;SDS011;52948;60.040;30.320;2022-09-30T12:54:49;3.03;;;2.10;;
66145;SDS011;52948;60.040;30.320;2022-09-30T13:00:17;2.22;;;1.35;;
66145;SDS011;52948;60.040;30.320;2022-09-30T13:16:03;2.67;;;1.77;;
66145;SDS011;52948;60.040;30.320;2022-09-30T13:32:28;2.78;;;1.48;;
66145;SDS011;52948;60.040;30.320;2022-09-30T13:47:07;1.15;;;1.00;;
66145;SDS011;52948;60.040;30.320;2022-09-30T13:52:27;1.08;;;0.98;;
66145;SDS011;52948;60.040;30.320;2022-09-30T13:57:40;1.60;;;1.20;;
66145;SDS011;52948;60.040;30.320;2022-09-30T14:02:58;1.92;;;1.50;;
66145;SDS011;52948;60.040;30.320;2022-09-30T14:13:27;6.38;;;1.52;;
66145;SDS011;52948;60.040;30.320;2022-09-30T14:24:01;2.33;;;1.60;;
66145;SDS011;52948;60.040;30.320;2022-09-30T14:34:17;2.63;;;1.80;;
66145;SDS011;52948;60.040;30.320;2022-09-30T14:39:24;1.70;;;1.52;;
66145;SDS011;52948;60.040;30.320;2022-09-30T14:44:30;2.20;;;1.63;;
66145;SDS011;52948;60.040;30.320;2022-09-30T14:49:35;2.58;;;1.50;;
66145;SDS011;52948;60.040;30.320;2022-09-30T14:54:45;2.38;;;1.65;;
66145;SDS011;52948;60.040;30.320;2022-09-30T14:59:49;3.05;;;2.00;;
66145;SDS011;52948;60.040;30.320;2022-09-30T15:04:53;4.28;;;1.95;;
66145;SDS011;52948;60.040;30.320;2022-09-30T15:09:59;2.80;;;1.73;;
66145;SDS011;52948;60.040;30.320;2022-09-30T15:15:20;3.33;;;2.10;;
66145;SDS011;52948;60.040;30.320;2022-09-30T15:20:32;6.45;;;2.70;;
66145;SDS011;52948;60.040;30.320;2022-09-30T15:25:34;6.13;;;3.10;;
66145;SDS011;52948;60.040;30.320;2022-09-30T15:30:37;7.20;;;3.35;;
66145;SDS011;52948;60.040;30.320;2022-09-30T15:35:39;3.75;;;2.58;;
66145;SDS011;52948;60.040;30.320;2022-09-30T15:40:42;4.47;;;2.33;;
66145;SDS011;52948;60.040;30.320;2022-09-30T15:45:50;3.08;;;1.80;;
66145;SDS011;52948;60.040;30.320;2022-09-30T15:50:55;6.43;;;2.95;;
66145;SDS011;52948;60.040;30.320;2022-09-30T15:55:59;5.25;;;2.10;;
66145;SDS011;52948;60.040;30.320;2022-09-30T16:01:17;4.00;;;1.55;;
66145;SDS011;52948;60.040;30.320;2022-09-30T16:11:36;3.97;;;1.90;;
66145;SDS011;52948;60.040;30.320;2022-09-30T16:16:46;4.63;;;1.60;;
66145;SDS011;52948;60.040;30.320;2022-09-30T16:21:50;3.25;;;1.50;;
66145;SDS011;52948;60.040;30.320;2022-09-30T16:26:57;3.15;;;1.77;;
66145;SDS011;52948;60.040;30.320;2022-09-30T16:32:01;6.43;;;1.50;;
66145;SDS011;52948;60.040;30.320;2022-09-30T16:37:08;1.98;;;1.42;;
66145;SDS011;52948;60.040;30.320;2022-09-30T16:42:15;3.33;;;1.52;;
66145;SDS011;52948;60.040;30.320;2022-09-30T16:47:18;2.63;;;1.45;;
66145;SDS011;52948;60.040;30.320;2022-09-30T16:52:22;1.75;;;1.10;;
66145;SDS011;52948;60.040;30.320;2022-09-30T16:57:25;2.53;;;1.40;;
66145;SDS011;52948;60.040;30.320;2022-09-30T17:02:27;2.88;;;1.35;;
66145;SDS011;52948;60.040;30.320;2022-09-30T17:07:29;3.05;;;2.00;;
66145;SDS011;52948;60.040;30.320;2022-09-30T17:12:32;1.73;;;1.30;;
66145;SDS011;52948;60.040;30.320;2022-09-30T17:17:35;2.55;;;1.65;;
66145;SDS011;52948;60.040;30.320;2022-09-30T17:22:37;2.08;;;1.30;;
66145;SDS011;52948;60.040;30.320;2022-09-30T17:27:40;2.00;;;1.52;;
66145;SDS011;52948;60.040;30.320;2022-09-30T17:32:43;1.50;;;1.40;;
66145;SDS011;52948;60.040;30.320;2022-09-30T17:37:46;2.78;;;1.40;;
66145;SDS011;52948;60.040;30.320;2022-09-30T17:42:48;2.10;;;1.50;;
66145;SDS011;52948;60.040;30.320;2022-09-30T17:48:09;2.45;;;1.67;;
66145;SDS011;52948;60.040;30.320;2022-09-30T17:53:14;1.80;;;1.20;;
66145;SDS011;52948;60.040;30.320;2022-09-30T17:58:20;2.33;;;1.67;;
66145;SDS011;52948;60.040;30.320;2022-09-30T18:03:23;2.72;;;1.50;;
66145;SDS011;52948;60.040;30.320;2022-09-30T18:08:27;2.38;;;1.73;;
66145;SDS011;52948;60.040;30.320;2022-09-30T18:13:30;1.95;;;1.35;;
66145;SDS011;52948;60.040;30.320;2022-09-30T18:18:32;1.58;;;1.10;;
66145;SDS011;52948;60.040;30.320;2022-09-30T18:23:35;1.15;;;1.05;;
66145;SDS011;52948;60.040;30.320;2022-09-30T18:28:38;1.33;;;1.10;;
66145;SDS011;52948;60.040;30.320;2022-09-30T18:33:40;1.40;;;0.95;;
66145;SDS011;52948;60.040;30.320;2022-09-30T18:38:42;1.10;;;1.00;;
66145;SDS011;52948;60.040;30.320;2022-09-30T18:43:45;1.45;;;1.15;;
66145;SDS011;52948;60.040;30.320;2022-09-30T18:48:47;2.63;;;1.27;;
66145;SDS011;52948;60.040;30.320;2022-09-30T18:53:51;1.40;;;1.20;;
66145;SDS011;52948;60.040;30.320;2022-09-30T18:58:59;4.13;;;1.17;;
66145;SDS011;52948;60.040;30.320;2022-09-30T19:04:03;2.67;;;1.40;;
66145;SDS011;52948;60.040;30.320;2022-09-30T19:09:05;4.20;;;2.05;;
66145;SDS011;52948;60.040;30.320;2022-09-30T19:14:10;1.85;;;1.40;;
66145;SDS011;52948;60.040;30.320;2022-09-30T19:19:13;2.65;;;1.20;;
66145;SDS011;52948;60.040;30.320;2022-09-30T19:24:16;1.85;;;1.23;;
66145;SDS011;52948;60.040;30.320;2022-09-30T19:29:19;1.42;;;1.33;;
66145;SDS011;52948;60.040;30.320;2022-09-30T19:34:21;1.80;;;1.48;;
66145;SDS011;52948;60.040;30.320;2022-09-30T19:39:24;2.67;;;1.60;;
66145;SDS011;52948;60.040;30.320;2022-09-30T19:44:26;2.05;;;1.38;;
66145;SDS011;52948;60.040;30.320;2022-09-30T19:49:29;3.53;;;2.20;;
66145;SDS011;52948;60.040;30.320;2022-09-30T19:54:31;3.30;;;1.80;;
66145;SDS011;52948;60.040;30.320;2022-09-30T19:59:35;2.50;;;1.52;;
66145;SDS011;52948;60.040;30.320;2022-09-30T20:04:38;5.15;;;1.20;;
66145;SDS011;52948;60.040;30.320;2022-09-30T20:09:41;5.28;;;1.27;;
66145;SDS011;52948;60.040;30.320;2022-09-30T20:14:45;1.80;;;1.42;;
66145;SDS011;52948;60.040;30.320;2022-09-30T20:20:06;2.22;;;1.33;;
66145;SDS011;52948;60.040;30.320;2022-09-30T20:25:27;1.67;;;1.20;;
66145;SDS011;52948;60.040;30.320;2022-09-30T20:30:31;1.92;;;1.27;;
66145;SDS011;52948;60.040;30.320;2022-09-30T20:35:34;3.25;;;1.27;;
66145;SDS011;52948;60.040;30.320;2022-09-30T20:40:37;2.63;;;1.67;;
66145;SDS011;52948;60.040;30.320;2022-09-30T20:45:40;2.47;;;1.33;;
66145;SDS011;52948;60.040;30.320;2022-09-30T20:50:43;2.92;;;1.80;;
66145;SDS011;52948;60.040;30.320;2022-09-30T20:55:46;2.15;;;1.10;;
66145;SDS011;52948;60.040;30.320;2022-09-30T21:00:50;0.85;;;0.73;;
66145;SDS011;52948;60.040;30.320;2022-09-30T21:05:53;2.08;;;1.13;;
66145;SDS011;52948;60.040;30.320;2022-09-30T21:10:55;1.20;;;1.10;;
66145;SDS011;52948;60.040;30.320;2022-09-30T21:16:01;1.55;;;1.08;;
66145;SDS011;52948;60.040;30.320;2022-09-30T21:21:05;1.33;;;1.05;;
66145;SDS011;52948;60.040;30.320;2022-09-30T21:26:08;1.42;;;1.02;;
66145;SDS011;52948;60.040;30.320;2022-09-30T21:31:24;1.45;;;1.05;;
66145;SDS011;52948;60.040;30.320;2022-09-30T21:36:27;1.50;;;0.90;;
66145;SDS011;52948;60.040;30.320;2022-09-30T21:41:30;3.05;;;1.48;;
66145;SDS011;52948;60.040;30.320;2022-09-30T21:46:33;3.45;;;1.10;;
66145;SDS011;52948;60.040;30.320;2022-09-30T21:51:36;1.73;;;1.30;;
66145;SDS011;52948;60.040;30.320;2022-09-30T21:56:39;2.67;;;1.10;;
66145;SDS011;52948;60.040;30.320;2022-09-30T22:01:42;1.45;;;1.00;;
66145;SDS011;52948;60.040;30.320;2022-09-30T22:06:44;2.35;;;1.10;;
66145;SDS011;52948;60.040;30.320;2022-09-30T22:11:47;1.30;;;0.90;;
66145;SDS011;52948;60.040;30.320;2022-09-30T22:16:50;1.92;;;1.42;;
66145;SDS011;52948;60.040;30.320;2022-09-30T22:21:56;2.67;;;1.20;;
66145;SDS011;52948;60.040;30.320;2022-09-30T22:26:58;2.33;;;1.20;;
66145;SDS011;52948;60.040;30.320;2022-09-30T22:32:00;1.65;;;1.02;;
66145;SDS011;52948;60.040;30.320;2022-09-30T22:37:03;2.28;;;1.00;;
66145;SDS011;52948;60.040;30.320;2022-09-30T22:42:28;3.17;;;1.00;;
66145;SDS011;52948;60.040;30.320;2022-09-30T22:47:30;1.95;;;1.08;;
66145;SDS011;52948;60.040;30.320;2022-09-30T22:52:32;2.05;;;1.15;;
66145;SDS011;52948;60.040;30.320;2022-09-30T22:57:34;1.23;;;0.80;;
66145;SDS011;52948;60.040;30.320;2022-09-30T23:02:36;4.57;;;1.08;;
66145;SDS011;52948;60.040;30.320;2022-09-30T23:07:38;1.48;;;1.10;;
66145;SDS011;52948;60.040;30.320;2022-09-30T23:12:41;1.35;;;1.00;;
66145;SDS011;52948;60.040;30.320;2022-09-30T23:17:43;1.77;;;1.10;;
66145;SDS011;52948;60.040;30.320;2022-09-30T23:22:45;1.50;;;0.88;;
66145;SDS011;52948;60.040;30.320;2022-09-30T23:27:47;1.85;;;1.13;;
66145;SDS011;52948;60.040;30.320;2022-09-30T23:32:50;0.80;;;0.80;;
66145;SDS011;52948;60.040;30.320;2022-09-30T23:37:52;1.63;;;1.00;;
66145;SDS011;52948;60.040;30.320;2022-09-30T23:42:54;1.27;;;0.80;;
66145;SDS011;52948;60.040;30.320;2022-09-30T23:47:58;4.40;;;0.90;;
66145;SDS011;52948;60.040;30.320;2022-09-30T23:53:00;1.67;;;0.90;;
66145;SDS011;52948;60.040;30.320;2022-09-30T23:58:02;2.40;;;1.13;;
